Time;durP1;ratioP1;P1;durP2;ratioP2;P2;SDS_P1;SDS_P2;PMS_P1;PMS_P2;Temp;Humidity;BMP_temperature;BMP_pressure;BME280_temperature;BME280_humidity;BME280_pressure;Samples;Min_cycle;Max_cycle;Signal;HPM_P1;HPM_P2
2023/12/17 00:01:59;;;;;;;18.77;8.93;;;;;;;-0.43;76.65;97063.94;5094614;28;20016;-87
2023/12/17 00:04:25;;;;;;;21.77;10.45;;;;;;;0.33;76.56;97173.31;5095168;28;20060;-86
2023/12/17 00:06:50;;;;;;;21.77;10.32;;;;;;;0.12;76.35;97154.69;5083676;28;20024;-85
2023/12/17 00:09:16;;;;;;;23.88;9.30;;;;;;;0.39;77.35;97202.22;5081489;28;20024;-85
2023/12/17 00:11:41;;;;;;;19.27;9.07;;;;;;;0.39;77.67;97214.44;5103647;28;20039;-85
2023/12/17 00:14:10;;;;;;;23.23;9.10;;;;;;;-0.36;77.56;97122.28;5114302;28;20071;-85
2023/12/17 00:16:35;;;;;;;21.13;9.52;;;;;;;-0.23;77.68;97129.69;5105122;28;20036;-87
2023/12/17 00:19:01;;;;;;;17.23;8.82;;;;;;;-0.32;77.01;97107.16;5075709;28;20063;-87
2023/12/17 00:21:26;;;;;;;18.67;8.70;;;;;;;-0.25;77.04;97150.69;5106358;28;20067;-85
2023/12/17 00:23:51;;;;;;;16.13;8.10;;;;;;;-0.92;77.16;97058.59;5095161;28;20035;-85
2023/12/17 00:26:17;;;;;;;16.60;7.20;;;;;;;-0.16;77.53;97211.53;5110597;28;20041;-86
2023/12/17 00:28:42;;;;;;;16.23;8.65;;;;;;;0.05;77.75;97205.88;5103700;28;20042;-86
2023/12/17 00:31:08;;;;;;;18.08;8.35;;;;;;;-0.47;79.05;97159.91;5089155;28;20090;-86
2023/12/17 00:33:33;;;;;;;21.10;8.75;;;;;;;0.01;79.15;97207.97;5087346;28;20111;-86
2023/12/17 00:35:59;;;;;;;23.08;8.32;;;;;;;0.24;78.50;97234.31;5077797;28;20028;-87
2023/12/17 00:38:24;;;;;;;17.33;8.63;;;;;;;-0.06;78.10;97173.06;5076492;28;20085;-86
2023/12/17 00:40:50;;;;;;;20.00;8.07;;;;;;;0.10;78.74;97180.94;5072098;28;20027;-86
2023/12/17 00:43:15;;;;;;;18.42;8.73;;;;;;;-0.07;79.01;97161.81;5076409;28;20098;-84
2023/12/17 00:45:41;;;;;;;18.80;8.32;;;;;;;0.45;78.62;97247.75;5046868;28;20090;-84
2023/12/17 00:48:07;;;;;;;19.35;8.10;;;;;;;-0.72;77.98;97055.72;5085669;28;20037;-84
2023/12/17 00:50:32;;;;;;;16.25;8.32;;;;;;;-0.26;77.63;97137.81;5049480;28;20041;-84
2023/12/17 00:52:58;;;;;;;18.48;8.75;;;;;;;0.00;77.48;97188.13;5047436;28;20036;-87
2023/12/17 00:55:23;;;;;;;17.60;8.52;;;;;;;-0.76;76.70;97088.28;5090953;28;20037;-86
2023/12/17 00:57:49;;;;;;;17.90;8.88;;;;;;;-0.65;77.83;97143.53;5077056;28;20060;-86
2023/12/17 01:00:15;;;;;;;16.67;8.15;;;;;;;-0.47;78.28;97174.72;5081794;28;20037;-86
2023/12/17 01:02:42;;;;;;;21.25;9.57;;;;;;;-0.14;79.29;97244.28;5082326;28;20507;-86
2023/12/17 01:05:08;;;;;;;16.70;8.65;;;;;;;-0.11;79.66;97243.97;5083351;28;20025;-86
2023/12/17 01:07:34;;;;;;;17.95;8.13;;;;;;;-0.64;79.36;97163.41;5084171;28;20441;-85
2023/12/17 01:09:59;;;;;;;18.75;8.30;;;;;;;-0.34;80.27;97203.78;5087681;28;20085;-87
2023/12/17 01:12:25;;;;;;;19.27;10.25;;;;;;;-0.35;79.28;97222.19;5089170;28;20024;-86
2023/12/17 01:14:50;;;;;;;20.25;9.52;;;;;;;-0.88;79.36;97113.78;5073606;28;20059;-86
2023/12/17 01:17:16;;;;;;;18.83;8.52;;;;;;;-0.05;79.97;97237.31;5064111;28;20038;-86
2023/12/17 01:19:41;;;;;;;22.77;10.68;;;;;;;-0.08;80.88;97232.44;5077083;28;20037;-87
2023/12/17 01:22:07;;;;;;;24.08;11.70;;;;;;;-0.87;79.90;97107.59;5087001;28;20042;-86
2023/12/17 01:24:32;;;;;;;32.90;11.68;;;;;;;-0.54;79.90;97160.69;5075924;28;20029;-86
2023/12/17 01:26:59;;;;;;;32.72;12.88;;;;;;;-0.80;79.36;97132.06;5062525;28;20029;-87
2023/12/17 01:29:25;;;;;;;30.88;12.63;;;;;;;-0.38;80.25;97257.19;5107380;28;20103;-86
2023/12/17 01:31:50;;;;;;;32.38;11.60;;;;;;;-0.84;80.62;97177.63;5068815;28;20060;-85
2023/12/17 01:34:16;;;;;;;28.42;12.57;;;;;;;-0.19;80.75;97253.56;5088755;28;20030;-86
2023/12/17 01:36:42;;;;;;;25.33;11.80;;;;;;;-0.05;81.02;97259.00;5060918;28;20060;-87
2023/12/17 01:39:07;;;;;;;24.20;11.35;;;;;;;0.06;80.90;97250.09;5062716;28;20033;-85
2023/12/17 01:41:33;;;;;;;26.05;12.57;;;;;;;-0.55;81.14;97144.22;5071367;28;20032;-86
2023/12/17 01:43:58;;;;;;;28.25;12.75;;;;;;;-0.40;79.48;97183.56;5065914;28;20033;-86
2023/12/17 01:46:24;;;;;;;29.48;11.52;;;;;;;-0.15;79.88;97244.44;5076001;28;20576;-87
2023/12/17 01:48:50;;;;;;;26.65;12.13;;;;;;;-0.19;80.00;97250.94;5078824;28;20105;-87
2023/12/17 01:51:16;;;;;;;26.38;12.18;;;;;;;-0.07;80.38;97237.47;5088660;28;20024;-85
2023/12/17 01:53:43;;;;;;;31.63;13.40;;;;;;;-0.02;80.27;97245.66;5061640;28;20487;-83
2023/12/17 01:56:10;;;;;;;23.27;10.98;;;;;;;-0.04;80.19;97244.97;5058977;28;20028;-80
2023/12/17 01:58:36;;;;;;;24.67;12.00;;;;;;;-0.40;79.70;97233.09;5057549;28;20026;-80
2023/12/17 02:01:03;;;;;;;24.02;11.48;;;;;;;-1.13;80.70;97175.28;5044063;28;20032;-81
2023/12/17 02:03:28;;;;;;;23.77;11.20;;;;;;;-1.08;80.77;97144.44;5077715;28;20033;-86
2023/12/17 02:05:54;;;;;;;22.45;10.98;;;;;;;-0.31;81.08;97260.84;5082610;28;20012;-86
2023/12/17 02:08:20;;;;;;;22.75;11.48;;;;;;;-1.15;80.50;97153.00;5089165;28;20039;-85
2023/12/17 02:10:47;;;;;;;24.42;11.35;;;;;;;-1.37;81.32;97120.44;5080622;28;20055;-86
2023/12/17 02:13:14;;;;;;;27.80;11.68;;;;;;;-2.03;80.75;96994.28;5068113;28;20025;-85
2023/12/17 02:15:40;;;;;;;24.25;10.85;;;;;;;-1.57;80.21;97062.56;5110016;28;20121;-86
2023/12/17 02:18:06;;;;;;;27.23;11.25;;;;;;;-1.02;80.82;97206.31;5087814;28;20024;-85
2023/12/17 02:20:34;;;;;;;25.00;11.05;;;;;;;-1.56;81.58;97118.84;5060928;28;20025;-86
2023/12/17 02:23:02;;;;;;;22.83;10.75;;;;;;;-0.94;81.62;97214.19;5061833;28;20025;-86
2023/12/17 02:25:28;;;;;;;26.65;11.95;;;;;;;-0.94;81.32;97193.34;5062485;28;20036;-87
2023/12/17 02:27:57;;;;;;;25.23;10.43;;;;;;;-0.64;80.82;97223.34;5074949;28;20056;-86
2023/12/17 02:30:23;;;;;;;25.63;10.80;;;;;;;-0.59;81.18;97231.50;5078023;28;20029;-86
2023/12/17 02:32:49;;;;;;;23.65;10.48;;;;;;;-0.71;81.31;97187.63;5067374;28;20043;-86
2023/12/17 02:35:15;;;;;;;28.45;10.30;;;;;;;-0.51;81.16;97222.91;5102458;28;20012;-86
2023/12/17 02:37:40;;;;;;;26.05;10.35;;;;;;;-0.82;80.69;97191.28;5090111;28;20130;-87
2023/12/17 02:40:07;;;;;;;23.90;10.50;;;;;;;-1.63;80.86;97052.78;5079976;28;20035;-87
2023/12/17 02:42:32;;;;;;;22.30;10.57;;;;;;;-0.42;80.75;97254.09;5109693;28;20056;-86
2023/12/17 02:44:58;;;;;;;23.52;10.05;;;;;;;-0.92;80.47;97191.41;5068514;28;20048;-86
2023/12/17 02:47:23;;;;;;;18.08;9.40;;;;;;;-0.59;80.73;97233.28;5072852;28;20025;-87
2023/12/17 02:49:49;;;;;;;20.70;8.77;;;;;;;-0.59;79.72;97254.13;5074661;28;20036;-86
2023/12/17 02:52:14;;;;;;;18.23;7.78;;;;;;;-1.38;79.92;97124.03;5102403;28;20020;-85
2023/12/17 02:54:40;;;;;;;19.73;9.57;;;;;;;-1.42;79.58;97110.50;5083746;28;20048;-86
2023/12/17 02:57:05;;;;;;;22.02;9.25;;;;;;;-1.61;79.00;97097.69;5100163;28;20032;-86
2023/12/17 02:59:31;;;;;;;19.30;9.98;;;;;;;-1.64;79.29;97104.00;5084800;28;20029;-86
2023/12/17 03:01:57;;;;;;;21.52;9.05;;;;;;;-1.06;79.92;97232.78;5111850;28;20078;-87
2023/12/17 03:04:23;;;;;;;17.38;8.35;;;;;;;-1.46;80.33;97184.66;5083548;28;20027;-85
2023/12/17 03:06:49;;;;;;;17.33;7.95;;;;;;;-1.14;81.04;97259.59;5079359;28;20044;-86
2023/12/17 03:09:15;;;;;;;21.13;9.05;;;;;;;-1.07;80.92;97263.25;5067904;28;20089;-85
2023/12/17 03:11:41;;;;;;;16.77;9.02;;;;;;;-2.39;81.60;97074.06;5076044;28;20035;-86
2023/12/17 03:14:07;;;;;;;18.13;8.32;;;;;;;-2.13;81.01;97109.72;5094757;28;20029;-86
2023/12/17 03:16:33;;;;;;;20.85;8.63;;;;;;;-1.33;80.67;97233.72;5072401;28;20025;-86
2023/12/17 03:18:58;;;;;;;22.40;8.65;;;;;;;-1.36;80.61;97242.63;5059464;28;20592;-86
2023/12/17 03:21:26;;;;;;;19.15;7.75;;;;;;;-1.22;80.80;97272.56;5064173;28;20474;-86
2023/12/17 03:23:53;;;;;;;16.23;7.95;;;;;;;-1.19;80.97;97262.66;5059983;28;20113;-86
2023/12/17 03:26:18;;;;;;;17.23;8.50;;;;;;;-1.23;81.17;97258.72;5081201;28;20013;-86
2023/12/17 03:28:44;;;;;;;19.08;8.60;;;;;;;-1.54;81.43;97210.59;5065704;28;20044;-86
2023/12/17 03:31:16;;;;;;;19.40;9.18;;;;;;;-1.35;81.78;97270.31;5081817;28;20044;-86
2023/12/17 03:33:43;;;;;;;17.00;8.05;;;;;;;-2.46;82.39;97127.59;5070633;28;20044;-86
2023/12/17 03:36:13;;;;;;;21.10;9.27;;;;;;;-2.03;82.48;97197.09;5048663;28;20038;-86
2023/12/17 03:38:39;;;;;;;16.73;8.07;;;;;;;-2.52;82.87;97122.97;5081666;28;20120;-86
2023/12/17 03:41:05;;;;;;;17.90;7.93;;;;;;;-2.00;83.01;97214.19;5071244;28;20060;-86
2023/12/17 03:43:30;;;;;;;17.30;8.60;;;;;;;-1.51;83.80;97274.53;5075285;28;20089;-86
2023/12/17 03:45:56;;;;;;;18.25;8.18;;;;;;;-1.77;83.25;97233.63;5071810;28;20021;-86
2023/12/17 03:48:21;;;;;;;17.13;8.13;;;;;;;-2.04;83.51;97212.84;5066093;28;20072;-86
2023/12/17 03:50:47;;;;;;;21.48;8.77;;;;;;;-2.24;83.97;97190.50;5063931;28;20032;-87
2023/12/17 03:53:12;;;;;;;20.13;8.77;;;;;;;-2.97;83.77;97063.16;5067772;28;20450;-86
2023/12/17 03:55:38;;;;;;;15.30;7.78;;;;;;;-2.55;83.42;97107.66;5054048;28;20105;-85
2023/12/17 03:58:04;;;;;;;18.75;8.10;;;;;;;-1.63;83.59;97240.94;5065072;28;20037;-86
2023/12/17 04:00:30;;;;;;;19.20;8.98;;;;;;;-1.53;83.21;97279.06;5057802;28;20120;-86
2023/12/17 04:02:56;;;;;;;18.05;8.60;;;;;;;-1.57;83.03;97234.31;5067839;28;20488;-86
2023/12/17 04:05:25;;;;;;;15.80;8.35;;;;;;;-2.28;83.51;97126.78;5094002;28;20028;-86
2023/12/17 04:07:50;;;;;;;20.83;8.45;;;;;;;-1.34;83.08;97263.31;5074234;28;20070;-86
2023/12/17 04:10:16;;;;;;;17.63;7.78;;;;;;;-2.70;82.73;97059.75;5068605;28;20021;-85
2023/12/17 04:12:41;;;;;;;18.15;8.07;;;;;;;-1.47;82.60;97239.44;5050888;28;20043;-84
2023/12/17 04:15:07;;;;;;;17.83;8.15;;;;;;;-1.29;82.21;97269.72;5060296;28;20086;-84
2023/12/17 04:17:33;;;;;;;19.52;8.52;;;;;;;-1.20;82.40;97286.22;5060190;28;20035;-84
2023/12/17 04:19:58;;;;;;;15.93;7.63;;;;;;;-2.40;82.44;97114.00;5069526;28;20454;-84
2023/12/17 04:22:24;;;;;;;22.08;8.30;;;;;;;-2.62;83.27;97110.97;5088678;28;20539;-83
2023/12/17 04:24:49;;;;;;;17.17;7.90;;;;;;;-1.58;83.74;97289.91;5093973;28;20028;-84
2023/12/17 04:27:15;;;;;;;17.52;7.65;;;;;;;-1.81;83.60;97247.88;5105920;28;20025;-84
2023/12/17 04:29:41;;;;;;;19.50;8.20;;;;;;;-2.52;83.76;97155.94;5113413;28;20028;-85
2023/12/17 04:32:07;;;;;;;21.02;9.05;;;;;;;-2.36;84.44;97197.66;5086464;28;20037;-84
2023/12/17 04:34:32;;;;;;;17.33;8.55;;;;;;;-1.80;84.72;97283.34;5096127;28;20094;-84
2023/12/17 04:36:59;;;;;;;20.02;8.85;;;;;;;-1.93;85.14;97272.47;5105532;28;20036;-85
2023/12/17 04:39:26;;;;;;;18.27;9.10;;;;;;;-2.92;85.59;97130.25;5096861;28;20024;-85
2023/12/17 04:41:51;;;;;;;17.73;9.32;;;;;;;-2.07;85.70;97239.97;5104487;28;20087;-84
2023/12/17 04:44:17;;;;;;;23.27;8.77;;;;;;;-2.19;85.54;97206.47;5076263;28;20024;-84
2023/12/17 04:46:42;;;;;;;18.38;8.48;;;;;;;-1.79;85.25;97269.38;5053150;28;20028;-84
2023/12/17 04:49:08;;;;;;;17.80;8.32;;;;;;;-1.66;84.63;97290.63;5076673;28;20032;-84
2023/12/17 04:51:33;;;;;;;19.42;10.20;;;;;;;-2.37;84.66;97168.28;5086008;28;20078;-84
2023/12/17 04:53:59;;;;;;;21.08;10.05;;;;;;;-1.79;84.83;97258.13;5096014;28;20028;-84
2023/12/17 04:56:25;;;;;;;17.48;9.20;;;;;;;-1.91;84.79;97235.91;5106606;28;20031;-85
2023/12/17 04:58:50;;;;;;;20.27;9.23;;;;;;;-2.14;84.46;97206.88;5094504;28;20043;-84
2023/12/17 05:01:16;;;;;;;18.80;9.02;;;;;;;-1.74;84.50;97254.13;5076277;28;20024;-84
2023/12/17 05:03:41;;;;;;;21.05;10.43;;;;;;;-1.33;84.12;97317.84;5076446;28;20454;-84
2023/12/17 05:06:08;;;;;;;18.85;9.20;;;;;;;-2.52;83.88;97140.34;5098257;28;20076;-84
2023/12/17 05:08:34;;;;;;;18.83;8.63;;;;;;;-1.36;84.28;97327.72;5112975;28;20033;-85
2023/12/17 05:10:59;;;;;;;23.13;9.65;;;;;;;-1.39;84.29;97313.22;5092173;28;20028;-84
2023/12/17 05:13:25;;;;;;;30.20;11.30;;;;;;;-2.49;84.15;97156.44;5097951;28;20036;-84
2023/12/17 05:15:50;;;;;;;20.60;9.70;;;;;;;-1.75;84.42;97273.28;5089071;28;20036;-84
2023/12/17 05:18:16;;;;;;;23.98;10.02;;;;;;;-1.59;84.21;97296.06;5082998;28;20036;-84
2023/12/17 05:20:41;;;;;;;20.38;10.00;;;;;;;-1.33;83.96;97338.66;5087589;28;20112;-84
2023/12/17 05:23:12;;;;;;;22.40;10.48;;;;;;;-1.88;83.66;97272.00;5075654;28;20049;-81
2023/12/17 05:25:39;;;;;;;21.30;10.68;;;;;;;-1.64;84.58;97317.34;5101935;28;20032;-80
2023/12/17 05:28:04;;;;;;;22.63;9.25;;;;;;;-1.57;84.76;97325.38;5069355;28;20074;-80
2023/12/17 05:30:30;;;;;;;21.17;10.35;;;;;;;-2.83;84.14;97103.44;5076934;28;20537;-80
2023/12/17 05:32:56;;;;;;;22.02;10.48;;;;;;;-1.43;83.99;97342.28;5068180;28;20035;-86
2023/12/17 05:35:21;;;;;;;21.60;10.82;;;;;;;-1.50;83.73;97336.03;5103466;28;20057;-86
2023/12/17 05:37:47;;;;;;;21.10;10.82;;;;;;;-1.60;83.83;97339.47;5092720;28;20036;-86
2023/12/17 05:40:12;;;;;;;20.08;9.98;;;;;;;-1.50;83.84;97343.81;5109927;28;20037;-86
2023/12/17 05:42:38;;;;;;;22.27;10.15;;;;;;;-1.74;83.32;97307.94;5093599;28;20009;-86
2023/12/17 05:45:04;;;;;;;19.13;9.73;;;;;;;-1.55;83.71;97323.47;5079082;28;20064;-86
2023/12/17 05:47:30;;;;;;;23.73;9.98;;;;;;;-1.83;83.44;97281.00;5075966;28;20037;-85
2023/12/17 05:49:56;;;;;;;22.58;10.18;;;;;;;-1.53;83.86;97336.31;5088568;28;20040;-85
2023/12/17 05:52:22;;;;;;;19.73;9.85;;;;;;;-1.65;84.13;97331.31;5093587;28;20028;-86
2023/12/17 05:54:47;;;;;;;19.05;10.43;;;;;;;-1.46;83.69;97358.19;5091257;28;20112;-86
2023/12/17 05:57:13;;;;;;;18.83;9.18;;;;;;;-2.67;83.94;97168.53;5091840;28;20051;-85
2023/12/17 05:59:38;;;;;;;21.52;9.80;;;;;;;-1.76;84.03;97362.72;5093714;28;20054;-86
2023/12/17 06:02:04;;;;;;;22.90;11.07;;;;;;;-2.14;84.81;97321.28;5072223;28;20028;-86
2023/12/17 06:04:30;;;;;;;26.15;12.18;;;;;;;-2.45;85.05;97255.72;5078106;28;20013;-85
2023/12/17 06:06:55;;;;;;;25.27;12.85;;;;;;;-2.88;84.79;97180.91;5102644;28;20069;-86
2023/12/17 06:09:22;;;;;;;24.05;12.15;;;;;;;-3.13;84.35;97140.84;5104367;28;20028;-86
2023/12/17 06:11:49;;;;;;;27.02;14.05;;;;;;;-1.99;84.67;97333.66;5109935;28;20028;-85
2023/12/17 06:14:17;;;;;;;30.45;13.27;;;;;;;-1.71;84.99;97365.72;5110396;28;20055;-86
2023/12/17 06:16:42;;;;;;;27.10;13.50;;;;;;;-2.14;84.36;97279.69;5080577;28;20119;-86
2023/12/17 06:19:08;;;;;;;29.25;13.52;;;;;;;-1.90;84.57;97287.75;5104816;28;20044;-87
2023/12/17 06:21:33;;;;;;;22.63;12.85;;;;;;;-1.46;83.50;97371.22;5112566;28;20135;-86
2023/12/17 06:23:59;;;;;;;24.25;11.73;;;;;;;-1.53;83.15;97364.94;5093586;28;20035;-86
2023/12/17 06:26:25;;;;;;;22.65;12.00;;;;;;;-2.10;83.18;97279.22;5102897;28;20034;-86
2023/12/17 06:28:51;;;;;;;21.73;10.77;;;;;;;-1.50;83.24;97369.84;5092012;28;20032;-85
2023/12/17 06:31:17;;;;;;;20.30;9.80;;;;;;;-1.57;83.37;97385.22;5092051;28;20049;-85
2023/12/17 06:33:42;;;;;;;23.75;10.57;;;;;;;-2.78;83.75;97198.13;5075966;28;20525;-80
2023/12/17 06:36:08;;;;;;;26.10;12.63;;;;;;;-1.93;84.19;97324.47;5068565;28;20074;-80
2023/12/17 06:38:34;;;;;;;24.63;12.27;;;;;;;-2.92;83.42;97151.84;5074955;28;20044;-81
2023/12/17 06:40:59;;;;;;;22.80;10.50;;;;;;;-2.24;83.14;97292.72;5076279;28;20043;-82
2023/12/17 06:43:25;;;;;;;22.08;10.75;;;;;;;-1.76;83.08;97375.75;5068853;28;20036;-86
2023/12/17 06:45:51;;;;;;;23.05;10.52;;;;;;;-1.93;82.78;97342.66;5065470;28;20528;-85
2023/12/17 06:48:16;;;;;;;23.63;10.90;;;;;;;-2.28;83.46;97278.34;5071611;28;20067;-86
2023/12/17 06:50:42;;;;;;;24.17;10.35;;;;;;;-1.68;82.93;97375.81;5063818;28;20044;-86
2023/12/17 06:53:07;;;;;;;20.95;11.02;;;;;;;-2.78;83.24;97181.72;5088173;28;20032;-86
2023/12/17 06:55:33;;;;;;;20.88;10.20;;;;;;;-1.45;83.67;97393.69;5064731;28;20033;-86
2023/12/17 06:57:58;;;;;;;21.58;10.27;;;;;;;-2.39;82.70;97260.34;5066206;28;20069;-86
2023/12/17 07:00:24;;;;;;;23.45;10.32;;;;;;;-1.64;82.71;97360.75;5070537;28;20033;-86
2023/12/17 07:02:50;;;;;;;19.27;9.13;;;;;;;-1.81;82.92;97341.50;5041986;28;20057;-86
2023/12/17 07:05:16;;;;;;;20.65;8.82;;;;;;;-1.73;82.55;97367.63;5068187;28;20116;-85
2023/12/17 07:07:47;;;;;;;20.58;8.32;;;;;;;-1.52;82.86;97421.22;5045577;28;20033;-85
2023/12/17 07:10:12;;;;;;;14.35;7.30;;;;;;;-1.46;82.79;97425.88;5087225;28;20043;-85
2023/12/17 07:12:38;;;;;;;16.60;8.07;;;;;;;-1.81;82.64;97366.69;5060566;28;20041;-86
2023/12/17 07:15:04;;;;;;;16.27;8.57;;;;;;;-1.50;83.14;97427.09;5060381;28;20029;-86
2023/12/17 07:17:30;;;;;;;17.73;8.40;;;;;;;-1.92;83.04;97340.88;5063568;28;20088;-85
2023/12/17 07:19:55;;;;;;;19.38;9.35;;;;;;;-1.83;82.83;97358.25;5064675;28;20481;-86
2023/12/17 07:22:22;;;;;;;17.95;8.57;;;;;;;-1.30;82.99;97431.28;5063177;28;20037;-85
2023/12/17 07:24:49;;;;;;;17.45;8.55;;;;;;;-1.76;81.88;97328.91;5056230;28;20226;-86
2023/12/17 07:27:15;;;;;;;16.70;8.00;;;;;;;-1.63;81.97;97367.59;5059950;28;20490;-86
2023/12/17 07:29:40;;;;;;;16.08;8.50;;;;;;;-1.66;82.15;97366.09;5042667;28;20037;-86
2023/12/17 07:32:06;;;;;;;18.30;8.55;;;;;;;-1.20;81.86;97406.81;5080806;28;20094;-85
2023/12/17 07:34:32;;;;;;;16.88;8.20;;;;;;;-1.47;81.53;97349.56;5061776;28;20036;-86
2023/12/17 07:36:59;;;;;;;18.65;9.10;;;;;;;-1.08;82.24;97404.84;5063171;28;20044;-86
2023/12/17 07:39:24;;;;;;;18.13;9.35;;;;;;;-1.59;82.23;97289.09;5057460;28;20443;-86
2023/12/17 07:41:50;;;;;;;14.85;7.82;;;;;;;-1.02;81.05;97391.22;5083496;28;20036;-85
2023/12/17 07:44:16;;;;;;;15.13;7.80;;;;;;;-1.03;81.17;97371.34;5064125;28;20038;-86
2023/12/17 07:46:41;;;;;;;18.25;8.40;;;;;;;-1.27;81.04;97340.66;5082468;28;20029;-85
2023/12/17 07:49:07;;;;;;;18.40;8.18;;;;;;;-1.47;81.19;97322.72;5065950;28;20069;-86
2023/12/17 07:51:32;;;;;;;16.67;8.60;;;;;;;-1.89;81.59;97254.75;5068085;28;20026;-86
2023/12/17 07:53:58;;;;;;;18.92;8.40;;;;;;;-1.24;81.64;97356.00;5062767;28;20043;-85
2023/12/17 07:56:23;;;;;;;22.05;8.88;;;;;;;-1.85;81.48;97254.34;5066621;28;20037;-86
2023/12/17 07:58:49;;;;;;;22.60;9.60;;;;;;;-1.01;82.07;97412.88;5052248;28;20120;-85
2023/12/17 08:01:14;;;;;;;16.38;9.10;;;;;;;-1.08;81.79;97391.81;5071465;28;20503;-86
2023/12/17 08:03:40;;;;;;;16.83;8.63;;;;;;;-0.68;82.01;97443.47;5046565;28;20036;-85
2023/12/17 08:06:06;;;;;;;19.10;9.40;;;;;;;-0.90;81.83;97384.00;5065840;28;20495;-86
2023/12/17 08:08:31;;;;;;;22.02;9.63;;;;;;;-0.84;81.76;97376.41;5060143;28;20037;-85
2023/12/17 08:10:57;;;;;;;23.98;11.02;;;;;;;-0.65;81.94;97426.75;5056596;28;20044;-86
2023/12/17 08:13:22;;;;;;;23.45;11.68;;;;;;;-0.33;81.88;97447.91;5070363;28;20048;-86
2023/12/17 08:15:48;;;;;;;23.10;10.77;;;;;;;-0.69;81.04;97375.91;5052038;28;20032;-86
2023/12/17 08:18:14;;;;;;;28.98;11.27;;;;;;;-1.05;80.80;97284.72;5054482;28;20040;-86
2023/12/17 08:20:40;;;;;;;33.38;11.80;;;;;;;-0.18;81.04;97429.91;5090061;28;20033;-85
2023/12/17 08:23:06;;;;;;;26.15;11.65;;;;;;;-0.79;80.17;97300.41;5069519;28;20087;-86
2023/12/17 08:25:38;;;;;;;24.63;12.13;;;;;;;-0.34;80.54;97406.31;5064709;28;20042;-85
2023/12/17 08:28:04;;;;;;;26.25;12.10;;;;;;;-0.02;79.47;97451.72;5070470;28;20036;-85
2023/12/17 08:30:30;;;;;;;25.80;11.35;;;;;;;-0.25;79.13;97428.88;5091095;28;20039;-85
2023/12/17 08:32:55;;;;;;;24.80;11.90;;;;;;;-0.49;79.45;97386.00;5064958;28;20486;-86
2023/12/17 08:35:21;;;;;;;28.50;11.10;;;;;;;-1.06;80.21;97321.34;5066375;28;20039;-85
2023/12/17 08:37:46;;;;;;;26.33;11.15;;;;;;;-0.59;81.04;97402.69;5074623;28;20036;-85
2023/12/17 08:40:12;;;;;;;24.70;11.45;;;;;;;-0.56;81.03;97395.41;5074897;28;20037;-85
2023/12/17 08:42:37;;;;;;;21.50;10.40;;;;;;;-1.10;81.32;97313.00;5078172;28;20056;-86
2023/12/17 08:45:03;;;;;;;20.25;10.20;;;;;;;-0.70;81.51;97366.44;5074135;28;20036;-85
2023/12/17 08:47:29;;;;;;;26.70;11.80;;;;;;;-0.89;80.98;97310.09;5086043;28;20047;-86
2023/12/17 08:49:56;;;;;;;28.17;13.00;;;;;;;-0.17;80.71;97415.91;5068815;28;20036;-86
2023/12/17 08:52:23;;;;;;;24.10;11.40;;;;;;;-0.24;80.28;97400.06;5086241;28;20039;-85
2023/12/17 08:54:48;;;;;;;25.38;11.63;;;;;;;-0.12;81.00;97405.84;5063921;28;20084;-86
2023/12/17 08:57:14;;;;;;;23.63;12.07;;;;;;;-0.88;79.85;97286.50;5071749;28;20036;-86
2023/12/17 08:59:43;;;;;;;21.42;11.93;;;;;;;-0.33;80.52;97369.69;5052870;28;20056;-85
2023/12/17 09:02:09;;;;;;;27.27;12.50;;;;;;;-0.75;80.92;97300.91;5072537;28;20130;-86
2023/12/17 09:04:34;;;;;;;27.63;12.80;;;;;;;-0.20;81.25;97390.94;5072229;28;20087;-84
2023/12/17 09:07:00;;;;;;;31.90;13.38;;;;;;;-0.21;81.52;97391.09;5062076;28;20097;-84
2023/12/17 09:09:26;;;;;;;29.20;13.40;;;;;;;-1.33;81.47;97215.50;5093276;28;20024;-84
2023/12/17 09:11:51;;;;;;;23.50;11.60;;;;;;;-0.29;82.14;97383.22;5069339;28;20184;-84
2023/12/17 09:14:18;;;;;;;25.00;12.52;;;;;;;-0.48;81.11;97356.38;5083539;28;20032;-84
2023/12/17 09:16:43;;;;;;;25.83;12.25;;;;;;;-0.05;81.45;97422.50;5053390;28;20067;-84
2023/12/17 09:19:09;;;;;;;26.25;11.77;;;;;;;-0.80;80.22;97330.88;5082673;28;20483;-84
2023/12/17 09:21:34;;;;;;;23.52;11.65;;;;;;;-0.36;80.75;97395.22;5063464;28;20036;-84
2023/12/17 09:24:00;;;;;;;23.33;11.32;;;;;;;-0.52;80.43;97362.84;5067486;28;20115;-84
2023/12/17 09:26:25;;;;;;;23.20;11.75;;;;;;;-0.58;80.36;97337.38;5053034;28;20055;-84
2023/12/17 09:28:51;;;;;;;23.30;10.82;;;;;;;-1.12;80.57;97262.03;5081024;28;20097;-84
2023/12/17 09:31:16;;;;;;;24.30;11.65;;;;;;;-1.48;80.36;97203.97;5082423;28;20084;-84
2023/12/17 09:33:42;;;;;;;24.95;10.77;;;;;;;-1.00;79.95;97268.66;5049840;28;20426;-84
2023/12/17 09:36:08;;;;;;;25.77;10.82;;;;;;;-0.06;79.74;97429.50;5066328;28;20207;-83
2023/12/17 09:38:33;;;;;;;22.15;10.82;;;;;;;-0.43;79.33;97374.16;5069301;28;20043;-84
2023/12/17 09:40:59;;;;;;;20.40;10.68;;;;;;;-0.23;79.59;97421.75;5068242;28;20025;-84
2023/12/17 09:43:25;;;;;;;19.75;10.02;;;;;;;-0.62;79.79;97366.50;5077036;28;20025;-84
2023/12/17 09:45:53;;;;;;;18.08;9.23;;;;;;;-0.95;79.66;97301.09;5065102;28;20056;-84
2023/12/17 09:48:19;;;;;;;19.17;9.93;;;;;;;-0.31;79.86;97387.78;5061142;28;20055;-84
2023/12/17 09:50:45;;;;;;;19.42;9.65;;;;;;;-0.88;79.40;97294.31;5069008;28;20486;-84
2023/12/17 09:53:10;;;;;;;26.17;11.13;;;;;;;-0.60;78.73;97361.94;5064028;28;20104;-84
2023/12/17 09:55:37;;;;;;;22.92;11.80;;;;;;;-0.24;80.12;97405.28;5055444;28;20039;-84
2023/12/17 09:58:04;;;;;;;25.85;11.43;;;;;;;-0.39;80.25;97370.28;5079702;28;20113;-84
2023/12/17 10:00:30;;;;;;;28.70;14.30;;;;;;;-0.21;80.76;97385.88;5071627;28;20040;-84
2023/12/17 10:03:04;;;;;;;25.80;13.02;;;;;;;-0.27;80.17;97366.44;5052927;28;20039;-80
2023/12/17 10:05:31;;;;;;;32.53;13.13;;;;;;;-0.09;79.90;97385.50;5060051;28;20036;-80
2023/12/17 10:07:57;;;;;;;28.95;12.68;;;;;;;-0.55;79.39;97321.47;5090388;28;20047;-82
2023/12/17 10:10:23;;;;;;;31.33;14.82;;;;;;;-0.24;79.91;97366.16;5093214;28;20487;-80
2023/12/17 10:12:50;;;;;;;33.47;12.90;;;;;;;-0.71;80.35;97265.78;5070619;28;20033;-80
2023/12/17 10:15:16;;;;;;;26.77;11.57;;;;;;;-0.09;79.84;97376.84;5064025;28;20065;-80
2023/12/17 10:17:41;;;;;;;26.17;10.88;;;;;;;-0.26;79.61;97359.44;5078478;28;20047;-80
2023/12/17 10:20:07;;;;;;;19.75;10.13;;;;;;;-0.33;78.72;97356.63;5068930;28;20040;-80
2023/12/17 10:22:33;;;;;;;18.27;9.52;;;;;;;-0.19;78.58;97382.16;5055482;28;20032;-80
2023/12/17 10:24:58;;;;;;;21.00;10.93;;;;;;;-0.15;79.12;97375.66;5064341;28;20048;-80
2023/12/17 10:27:24;;;;;;;24.85;11.05;;;;;;;-0.52;78.57;97317.72;5064264;28;20033;-84
2023/12/17 10:29:51;;;;;;;21.73;9.98;;;;;;;-0.07;78.03;97367.06;5076898;28;20040;-84
2023/12/17 10:32:22;;;;;;;25.25;10.15;;;;;;;-0.23;78.21;97339.09;5089168;28;20052;-84
2023/12/17 10:34:52;;;;;;;26.95;12.15;;;;;;;-0.20;78.39;97322.31;5062511;28;20043;-84
2023/12/17 10:37:22;;;;;;;21.65;10.38;;;;;;;-0.14;78.18;97342.56;5067282;28;20110;-84
2023/12/17 10:39:49;;;;;;;23.58;11.00;;;;;;;-0.03;78.21;97358.78;5047043;28;20071;-84
2023/12/17 10:42:17;;;;;;;21.15;10.63;;;;;;;-0.02;77.88;97359.59;5068274;28;20043;-84
2023/12/17 10:44:49;;;;;;;29.02;11.55;;;;;;;-0.83;77.96;97213.91;5038996;28;20422;-84
2023/12/17 10:47:23;;;;;;;23.40;11.65;;;;;;;-0.30;77.63;97287.69;5084674;28;20470;-84
2023/12/17 10:49:50;;;;;;;20.67;11.00;;;;;;;-0.27;77.03;97290.84;5045131;28;20037;-84
2023/12/17 10:52:15;;;;;;;22.17;10.40;;;;;;;-0.47;76.84;97279.00;5068855;28;20037;-84
2023/12/17 10:54:41;;;;;;;25.58;11.40;;;;;;;-0.40;76.81;97282.63;5035816;28;20037;-84
2023/12/17 10:57:13;;;;;;;19.75;9.80;;;;;;;-1.38;76.80;97119.66;5068222;28;20079;-84
2023/12/17 10:59:41;;;;;;;28.58;11.45;;;;;;;-0.10;77.45;97316.03;5044733;28;20514;-84
2023/12/17 11:02:09;;;;;;;26.50;11.75;;;;;;;-0.14;77.30;97279.97;5047283;28;20036;-84
2023/12/17 11:04:35;;;;;;;28.10;13.68;;;;;;;-0.42;77.38;97198.53;5068049;28;20048;-84
2023/12/17 11:07:00;;;;;;;22.88;11.13;;;;;;;0.15;76.42;97317.00;5063173;28;20028;-84
2023/12/17 11:09:26;;;;;;;20.65;10.55;;;;;;;-0.27;76.27;97264.75;5058731;28;20067;-84
2023/12/17 11:11:52;;;;;;;21.42;9.93;;;;;;;0.22;76.92;97332.84;5074167;28;20044;-84
2023/12/17 11:14:18;;;;;;;25.30;12.65;;;;;;;0.37;77.17;97337.31;5074164;28;20029;-84
2023/12/17 11:16:43;;;;;;;21.70;10.88;;;;;;;-0.07;76.29;97247.06;5062197;28;20063;-84